Time;durP1;ratioP1;P1;durP2;ratioP2;P2;SDS_P1;SDS_P2;PMS_P1;PMS_P2;Temp;Humidity;BMP_temperature;BMP_pressure;BME280_temperature;BME280_humidity;BME280_pressure;Samples;Min_cycle;Max_cycle;Signal;HPM_P1;HPM_P2
2023/06/24 00:00:30;;;;;;;13.23;10.67;;;15.50;99.90;;;;;;5028536;28;20238;-83
2023/06/24 00:02:57;;;;;;;11.37;9.93;;;15.50;99.90;;;;;;5028647;28;20236;-84
2023/06/24 00:05:24;;;;;;;11.43;10.03;;;15.40;99.90;;;;;;5028698;28;20319;-84
2023/06/24 00:07:51;;;;;;;14.07;11.07;;;15.30;99.90;;;;;;5042805;28;20263;-84
2023/06/24 00:10:19;;;;;;;15.23;10.50;;;15.30;99.90;;;;;;5025938;28;20220;-84
2023/06/24 00:12:46;;;;;;;12.80;10.10;;;15.30;99.90;;;;;;5045456;28;20919;-84
2023/06/24 00:15:13;;;;;;;16.50;10.80;;;15.20;99.90;;;;;;5044868;28;20262;-84
2023/06/24 00:17:40;;;;;;;15.80;11.03;;;15.10;99.90;;;;;;5030167;28;20267;-83
2023/06/24 00:20:10;;;;;;;13.30;10.93;;;15.10;99.90;;;;;;5044450;28;20227;-84
2023/06/24 00:22:38;;;;;;;15.00;11.90;;;15.10;99.90;;;;;;5029693;28;20234;-83
2023/06/24 00:25:06;;;;;;;13.77;10.80;;;15.00;99.90;;;;;;5043963;28;20240;-84
2023/06/24 00:27:35;;;;;;;13.60;10.07;;;14.90;99.90;;;;;;5028547;28;20236;-83
2023/06/24 00:30:02;;;;;;;13.90;10.97;;;14.90;99.90;;;;;;5044346;28;20761;-83
2023/06/24 00:32:28;;;;;;;12.87;10.93;;;14.90;99.90;;;;;;5025248;28;20339;-83
2023/06/24 00:34:57;;;;;;;13.83;11.00;;;14.80;99.90;;;;;;5043008;28;20357;-83
2023/06/24 00:37:24;;;;;;;15.23;10.80;;;14.80;99.90;;;;;;5032318;28;20683;-84
2023/06/24 00:39:51;;;;;;;13.67;10.70;;;14.70;99.90;;;;;;5026589;28;20235;-84
2023/06/24 00:42:18;;;;;;;14.00;11.20;;;14.70;99.90;;;;;;5024536;28;20253;-84
2023/06/24 00:44:47;;;;;;;14.13;11.17;;;14.70;99.90;;;;;;5025254;28;20227;-83
2023/06/24 00:47:14;;;;;;;15.33;11.17;;;14.60;99.90;;;;;;5026225;28;20238;-82
2023/06/24 00:49:45;;;;;;;13.93;10.73;;;14.50;99.90;;;;;;5025299;28;20259;-83
2023/06/24 00:52:15;;;;;;;14.97;11.50;;;14.50;99.90;;;;;;5041049;28;20227;-82
2023/06/24 00:54:42;;;;;;;13.53;11.40;;;14.40;99.90;;;;;;5024285;28;20233;-83
2023/06/24 00:57:09;;;;;;;14.23;10.80;;;14.40;99.90;;;;;;5023467;28;20229;-83
2023/06/24 00:59:38;;;;;;;13.63;11.93;;;14.30;99.90;;;;;;5032153;28;20239;-83
2023/06/24 01:02:06;;;;;;;16.27;11.93;;;14.30;99.90;;;;;;5023508;28;20234;-84
2023/06/24 01:04:35;;;;;;;14.67;12.87;;;14.20;99.90;;;;;;5024907;28;20313;-84
2023/06/24 01:07:02;;;;;;;14.87;12.30;;;14.20;99.90;;;;;;5041942;28;21009;-83
2023/06/24 01:09:29;;;;;;;18.63;12.73;;;14.20;99.90;;;;;;5036898;28;20755;-83
2023/06/24 01:11:56;;;;;;;15.27;12.93;;;14.10;99.90;;;;;;5027930;28;20236;-82
2023/06/24 01:14:24;;;;;;;15.40;12.30;;;14.10;99.90;;;;;;5026674;28;20873;-83
2023/06/24 01:17:12;;;;;;;15.60;13.57;;;14.00;99.90;;;;;;5024763;28;20305;-83
2023/06/24 01:19:55;;;;;;;16.80;12.57;;;14.00;99.90;;;;;;5022480;28;20253;-83
2023/06/24 01:22:41;;;;;;;14.03;12.57;;;14.00;99.90;;;;;;5033160;28;20220;-84
2023/06/24 01:25:24;;;;;;;14.13;12.07;;;13.90;99.90;;;;;;5012901;28;20220;-83
2023/06/24 01:28:19;;;;;;;14.80;12.93;;;13.90;99.90;;;;;;5031107;28;20235;-84
2023/06/24 01:31:11;;;;;;;15.47;11.80;;;13.90;99.90;;;;;;5019945;28;20239;-83
2023/06/24 01:33:47;;;;;;;19.43;12.40;;;13.80;99.90;;;;;;5020473;28;20259;-82
2023/06/24 01:36:18;;;;;;;16.90;12.70;;;13.80;99.90;;;;;;5021536;28;20756;-83
2023/06/24 01:38:52;;;;;;;14.43;11.80;;;13.80;99.90;;;;;;5020372;28;20276;-83
2023/06/24 01:41:23;;;;;;;16.97;13.13;;;13.70;99.90;;;;;;5023769;28;20249;-83
2023/06/24 01:43:51;;;;;;;16.87;13.40;;;13.70;99.90;;;;;;5021505;28;20286;-82
2023/06/24 01:46:22;;;;;;;15.60;12.93;;;13.60;99.90;;;;;;5022065;28;20370;-83
2023/06/24 01:48:53;;;;;;;19.03;14.50;;;13.60;99.90;;;;;;5021466;28;20950;-83
2023/06/24 01:51:22;;;;;;;17.17;13.87;;;13.60;99.90;;;;;;5028820;28;20277;-83
2023/06/24 01:53:52;;;;;;;16.80;12.80;;;13.50;99.90;;;;;;5019022;28;20246;-84
2023/06/24 01:56:21;;;;;;;19.10;14.60;;;13.50;99.90;;;;;;5033868;28;20223;-84
2023/06/24 01:58:51;;;;;;;18.20;13.40;;;13.50;99.90;;;;;;5018642;28;20255;-84
2023/06/24 02:01:19;;;;;;;15.00;12.83;;;13.40;99.90;;;;;;5039232;28;20210;-82
2023/06/24 02:03:47;;;;;;;15.40;12.27;;;13.40;99.90;;;;;;5021777;28;21192;-83
2023/06/24 02:06:16;;;;;;;14.80;12.13;;;13.40;99.90;;;;;;5022474;28;20223;-83
2023/06/24 02:08:44;;;;;;;16.07;12.30;;;13.40;99.90;;;;;;5021229;28;20263;-83
2023/06/24 02:11:13;;;;;;;13.20;11.33;;;13.30;99.90;;;;;;5023098;28;20221;-83
2023/06/24 02:13:41;;;;;;;16.53;11.93;;;13.30;99.90;;;;;;5029132;28;20248;-82
2023/06/24 02:16:15;;;;;;;13.60;11.30;;;13.30;99.90;;;;;;5015069;28;20235;-83
2023/06/24 02:18:43;;;;;;;16.77;11.63;;;13.20;99.90;;;;;;5026890;28;20240;-82
2023/06/24 02:21:10;;;;;;;17.00;13.40;;;13.20;99.90;;;;;;5023438;28;20306;-82
2023/06/24 02:23:39;;;;;;;14.00;11.50;;;13.20;99.90;;;;;;5025887;28;20231;-82
2023/06/24 02:26:07;;;;;;;15.13;11.77;;;13.10;99.90;;;;;;5026831;28;20236;-82
2023/06/24 02:28:35;;;;;;;14.87;10.87;;;13.10;99.90;;;;;;5021357;28;20337;-82
2023/06/24 02:31:05;;;;;;;15.40;11.70;;;13.10;99.90;;;;;;5019830;28;20283;-83
2023/06/24 02:33:31;;;;;;;12.47;9.70;;;13.10;99.90;;;;;;5024145;28;20967;-83
2023/06/24 02:35:58;;;;;;;14.57;10.70;;;13.00;99.90;;;;;;5027231;28;20231;-83
2023/06/24 02:38:25;;;;;;;13.00;10.97;;;13.00;99.90;;;;;;5027940;28;20312;-83
2023/06/24 02:40:53;;;;;;;15.23;11.80;;;12.90;99.90;;;;;;5025597;28;20238;-84
2023/06/24 02:43:20;;;;;;;12.10;10.80;;;12.90;99.90;;;;;;5020173;28;20249;-83
2023/06/24 02:45:48;;;;;;;14.33;11.17;;;12.90;99.90;;;;;;5019424;28;20315;-83
2023/06/24 02:48:15;;;;;;;13.80;10.40;;;12.80;99.90;;;;;;5038707;28;20234;-82
2023/06/24 02:50:44;;;;;;;11.93;10.50;;;12.80;99.90;;;;;;5023679;28;20225;-83
2023/06/24 02:53:11;;;;;;;13.50;10.00;;;12.80;99.90;;;;;;5052367;28;20252;-83
2023/06/24 02:55:40;;;;;;;15.03;11.90;;;12.80;99.90;;;;;;5021122;28;20310;-82
2023/06/24 02:58:09;;;;;;;16.70;11.80;;;12.70;99.90;;;;;;5053517;28;20225;-82
2023/06/24 03:01:06;;;;;;;12.13;10.37;;;12.70;99.90;;;;;;5013123;28;20297;-81
2023/06/24 03:03:39;;;;;;;13.70;10.37;;;12.70;99.90;;;;;;5025296;28;20668;-81
2023/06/24 03:06:12;;;;;;;13.30;10.77;;;12.70;99.90;;;;;;5025191;28;20608;-81
2023/06/24 03:08:41;;;;;;;11.17;9.53;;;12.70;99.90;;;;;;5028663;28;20227;-82
2023/06/24 03:11:09;;;;;;;12.20;9.77;;;12.60;99.90;;;;;;5029111;28;20228;-83
2023/06/24 03:13:38;;;;;;;12.53;10.13;;;12.60;99.90;;;;;;5022809;28;20224;-83
2023/06/24 03:16:31;;;;;;;11.03;8.40;;;12.60;99.90;;;;;;5020225;28;20774;-83
2023/06/24 03:19:05;;;;;;;9.43;7.07;;;12.60;99.90;;;;;;5025604;28;20230;-84
2023/06/24 03:21:34;;;;;;;12.20;7.97;;;12.50;99.90;;;;;;5037113;28;20257;-84
2023/06/24 03:24:08;;;;;;;13.27;9.40;;;12.50;99.90;;;;;;5035702;28;20227;-84
2023/06/24 03:26:39;;;;;;;10.57;8.10;;;12.50;99.90;;;;;;5034550;28;20270;-83
2023/06/24 03:29:10;;;;;;;12.07;8.10;;;12.50;99.90;;;;;;5022734;28;20743;-84
2023/06/24 03:31:43;;;;;;;11.00;8.83;;;12.50;99.90;;;;;;5033216;28;20738;-84
2023/06/24 03:34:11;;;;;;;10.43;8.33;;;12.50;99.90;;;;;;5021771;28;20237;-83
2023/06/24 03:36:39;;;;;;;15.00;9.67;;;12.50;99.90;;;;;;5024587;28;20719;-83
2023/06/24 03:39:06;;;;;;;13.17;9.80;;;12.50;99.90;;;;;;5026117;28;20305;-84
2023/06/24 03:41:33;;;;;;;11.03;9.37;;;12.50;99.90;;;;;;5021022;28;20244;-84
2023/06/24 03:44:01;;;;;;;8.00;7.20;;;12.50;99.90;;;;;;5025444;28;20692;-83
2023/06/24 03:46:32;;;;;;;9.87;7.77;;;12.50;99.90;;;;;;5054537;28;20273;-82
2023/06/24 03:49:00;;;;;;;8.83;7.40;;;12.50;99.90;;;;;;5020768;28;20232;-82
2023/06/24 03:51:28;;;;;;;9.80;7.30;;;12.60;99.90;;;;;;5039177;28;20224;-81
2023/06/24 03:53:55;;;;;;;12.97;7.50;;;12.60;99.90;;;;;;5022742;28;20220;-82
2023/06/24 03:56:21;;;;;;;9.97;6.80;;;12.60;99.90;;;;;;5018935;28;20224;-82
2023/06/24 03:58:48;;;;;;;13.07;7.17;;;12.70;99.90;;;;;;5032057;28;20268;-82
2023/06/24 04:01:17;;;;;;;9.90;7.47;;;12.80;99.90;;;;;;5043268;28;20229;-82
2023/06/24 04:03:45;;;;;;;11.23;6.17;;;12.80;99.90;;;;;;5056031;28;20218;-81
2023/06/24 04:06:12;;;;;;;8.47;6.07;;;12.90;99.90;;;;;;5021401;28;20706;-81
2023/06/24 04:08:39;;;;;;;7.60;5.73;;;13.00;99.90;;;;;;5024073;28;20250;-81
2023/06/24 04:11:08;;;;;;;8.20;7.27;;;13.00;99.90;;;;;;5020239;28;20228;-82
2023/06/24 04:13:34;;;;;;;9.27;6.50;;;13.10;99.90;;;;;;5020261;28;20228;-82
2023/06/24 04:16:01;;;;;;;10.00;7.50;;;13.20;99.90;;;;;;5019120;28;20290;-82
2023/06/24 04:18:28;;;;;;;9.37;7.60;;;13.30;99.90;;;;;;5016382;28;20297;-82
2023/06/24 04:20:57;;;;;;;9.97;7.80;;;13.40;99.90;;;;;;5017917;28;20250;-83
2023/06/24 04:23:24;;;;;;;9.90;7.40;;;13.50;99.90;;;;;;5038253;28;20229;-84
2023/06/24 04:25:50;;;;;;;12.27;9.87;;;13.60;99.90;;;;;;5021986;28;20611;-82
2023/06/24 04:28:17;;;;;;;11.93;9.47;;;13.60;99.90;;;;;;5036629;28;20253;-82
2023/06/24 04:30:44;;;;;;;12.03;10.03;;;13.70;99.90;;;;;;5021921;28;20319;-82
2023/06/24 04:33:10;;;;;;;11.50;10.13;;;13.70;99.90;;;;;;5024080;28;20241;-82
2023/06/24 04:35:37;;;;;;;14.13;9.87;;;13.70;99.90;;;;;;5033781;28;20228;-83
2023/06/24 04:38:06;;;;;;;11.53;9.70;;;13.80;99.90;;;;;;5021801;28;20229;-83
2023/06/24 04:40:33;;;;;;;11.93;9.83;;;13.80;99.90;;;;;;5033832;28;21693;-82
2023/06/24 04:43:00;;;;;;;11.80;10.17;;;13.90;99.90;;;;;;5024226;28;20234;-82
2023/06/24 04:45:27;;;;;;;13.83;10.27;;;13.90;99.90;;;;;;5021287;28;20315;-82
2023/06/24 04:47:54;;;;;;;10.93;9.40;;;13.90;99.90;;;;;;5020679;28;20313;-82
2023/06/24 04:50:21;;;;;;;11.17;9.23;;;14.00;99.90;;;;;;5022986;28;20748;-83
2023/06/24 04:52:54;;;;;;;11.03;9.70;;;14.00;99.90;;;;;;5021026;28;20645;-83
2023/06/24 04:55:22;;;;;;;12.67;9.70;;;14.00;99.90;;;;;;5019046;28;20305;-83
2023/06/24 04:57:49;;;;;;;12.17;9.43;;;14.10;99.90;;;;;;5019654;28;20217;-82
2023/06/24 05:00:16;;;;;;;11.37;9.10;;;14.10;99.90;;;;;;5022628;28;20222;-82
2023/06/24 05:02:45;;;;;;;12.70;10.10;;;14.10;99.90;;;;;;5027393;28;20222;-82
2023/06/24 05:05:12;;;;;;;10.83;8.77;;;14.20;99.90;;;;;;5021489;28;20283;-82
2023/06/24 05:07:40;;;;;;;10.83;7.67;;;14.30;99.90;;;;;;5029095;28;20231;-82
2023/06/24 05:10:07;;;;;;;11.50;8.13;;;14.30;99.90;;;;;;5026653;28;20214;-81
2023/06/24 05:12:35;;;;;;;12.47;7.40;;;14.40;99.90;;;;;;5025966;28;20958;-80
2023/06/24 05:15:03;;;;;;;11.43;8.53;;;14.40;99.90;;;;;;5029801;28;20258;-82
2023/06/24 05:17:30;;;;;;;10.13;8.10;;;14.50;99.90;;;;;;5028580;28;20779;-78
2023/06/24 05:19:56;;;;;;;10.93;8.10;;;14.60;99.90;;;;;;5023054;28;20236;-80
2023/06/24 05:22:24;;;;;;;11.60;7.83;;;14.60;99.90;;;;;;5020341;28;20308;-80
2023/06/24 05:24:51;;;;;;;10.17;7.33;;;14.70;99.90;;;;;;5023425;28;20226;-78
2023/06/24 05:27:18;;;;;;;10.40;7.00;;;14.80;99.90;;;;;;5024957;28;20949;-82
2023/06/24 05:29:47;;;;;;;10.90;7.13;;;14.90;99.90;;;;;;5023203;28;20675;-81
2023/06/24 05:32:14;;;;;;;9.97;6.50;;;14.90;99.90;;;;;;5026311;28;20943;-81
2023/06/24 05:34:41;;;;;;;9.20;6.10;;;15.00;99.90;;;;;;5025255;28;20286;-81
2023/06/24 05:37:08;;;;;;;8.83;6.37;;;15.10;99.90;;;;;;5021204;28;20765;-81
2023/06/24 05:39:35;;;;;;;6.93;5.50;;;15.20;99.90;;;;;;5027479;28;20281;-81
2023/06/24 05:42:02;;;;;;;8.87;5.63;;;15.30;99.90;;;;;;5025047;28;20915;-82
2023/06/24 05:44:29;;;;;;;8.60;5.17;;;15.30;99.90;;;;;;5030220;28;21400;-81
2023/06/24 05:46:57;;;;;;;8.47;5.17;;;15.40;99.90;;;;;;5026538;28;20232;-81
2023/06/24 05:49:24;;;;;;;6.37;4.97;;;15.50;99.90;;;;;;5041446;28;20258;-82
2023/06/24 05:51:51;;;;;;;7.03;4.93;;;15.60;99.90;;;;;;5022108;28;20325;-81
2023/06/24 05:54:17;;;;;;;6.33;4.87;;;15.70;99.90;;;;;;5025979;28;20228;-81
2023/06/24 05:56:44;;;;;;;8.53;5.07;;;15.80;99.90;;;;;;5027904;28;20307;-82
2023/06/24 05:59:11;;;;;;;5.63;4.90;;;15.90;99.90;;;;;;5040424;28;20220;-82
2023/06/24 06:01:38;;;;;;;8.87;4.70;;;16.00;99.90;;;;;;5025649;28;20228;-81
2023/06/24 06:04:06;;;;;;;9.57;5.47;;;16.00;99.90;;;;;;5020647;28;20334;-81
2023/06/24 06:06:33;;;;;;;8.73;4.97;;;16.10;99.90;;;;;;5024938;28;20222;-81
2023/06/24 06:09:00;;;;;;;7.47;4.80;;;16.20;99.90;;;;;;5028760;28;20317;-82
2023/06/24 06:11:26;;;;;;;6.73;4.50;;;16.30;99.90;;;;;;5032154;28;20225;-82
2023/06/24 06:13:53;;;;;;;5.83;4.50;;;16.30;99.90;;;;;;5031079;28;20228;-81
2023/06/24 06:16:20;;;;;;;6.40;4.37;;;16.40;99.90;;;;;;5034081;28;20342;-83
2023/06/24 06:18:47;;;;;;;5.87;4.57;;;16.50;99.90;;;;;;5026887;28;20235;-83
2023/06/24 06:21:15;;;;;;;7.20;3.90;;;16.60;99.90;;;;;;5041019;28;20257;-83
2023/06/24 06:23:42;;;;;;;7.77;4.90;;;16.60;99.90;;;;;;5044138;28;20224;-84
2023/06/24 06:26:08;;;;;;;7.23;4.97;;;16.70;99.90;;;;;;5017022;28;20316;-86
2023/06/24 06:28:35;;;;;;;7.53;5.00;;;16.80;99.90;;;;;;5026013;28;20243;-83
2023/06/24 06:31:02;;;;;;;6.87;4.47;;;17.00;99.90;;;;;;5024556;28;20248;-84
2023/06/24 06:33:28;;;;;;;6.53;4.73;;;17.10;99.90;;;;;;5021304;28;21350;-84
2023/06/24 06:35:55;;;;;;;8.07;4.50;;;17.20;99.90;;;;;;5033619;28;20228;-82
2023/06/24 06:38:23;;;;;;;5.40;3.90;;;17.40;99.90;;;;;;5028911;28;20237;-84
2023/06/24 06:40:50;;;;;;;4.93;4.20;;;17.50;99.90;;;;;;5056809;28;20247;-83
2023/06/24 06:43:17;;;;;;;5.53;4.20;;;17.60;99.90;;;;;;5043254;28;20247;-83
2023/06/24 06:45:43;;;;;;;5.13;3.93;;;17.70;99.90;;;;;;5034222;28;20777;-83
2023/06/24 06:48:10;;;;;;;4.73;3.87;;;17.80;99.90;;;;;;5029132;28;20232;-84
2023/06/24 06:50:37;;;;;;;4.40;3.70;;;17.90;99.90;;;;;;5028939;28;20319;-81
2023/06/24 06:53:03;;;;;;;5.43;4.13;;;18.10;99.90;;;;;;5026623;28;20244;-79
2023/06/24 06:55:31;;;;;;;4.78;3.65;;;18.20;99.90;;;;;;5057114;28;20320;-84
2023/06/24 06:57:58;;;;;;;4.35;3.53;;;18.40;99.90;;;;;;5026144;28;20235;-79
2023/06/24 07:00:25;;;;;;;4.53;3.70;;;18.60;99.90;;;;;;5030774;28;20228;-80
2023/06/24 07:02:52;;;;;;;4.03;3.40;;;18.90;99.90;;;;;;5029291;28;20284;-80
2023/06/24 07:05:18;;;;;;;5.13;3.40;;;19.30;99.90;;;;;;5040671;28;20234;-82
2023/06/24 07:07:45;;;;;;;4.85;3.20;;;19.90;99.90;;;;;;5027086;28;20933;-82
2023/06/24 07:10:12;;;;;;;3.17;2.80;;;20.50;99.90;;;;;;5045217;28;20750;-80
2023/06/24 07:12:40;;;;;;;4.63;3.10;;;21.20;99.90;;;;;;5033339;28;21008;-80
2023/06/24 07:15:08;;;;;;;3.83;3.25;;;21.90;99.90;;;;;;5028598;28;20457;-80
2023/06/24 07:17:35;;;;;;;4.57;2.80;;;22.70;99.90;;;;;;5037179;28;20240;-79
2023/06/24 07:20:01;;;;;;;5.65;3.30;;;23.30;99.90;;;;;;5029666;28;20217;-80
2023/06/24 07:22:30;;;;;;;2.92;2.60;;;23.80;99.90;;;;;;5044505;28;20224;-80
2023/06/24 07:24:57;;;;;;;4.82;2.50;;;24.40;99.90;;;;;;5044257;28;20292;-80
2023/06/24 07:27:23;;;;;;;3.30;2.53;;;25.00;99.90;;;;;;5059088;28;21773;-80
2023/06/24 07:29:51;;;;;;;2.67;2.35;;;25.60;99.40;;;;;;5026086;28;20762;-79
2023/06/24 07:32:18;;;;;;;2.65;2.05;;;26.10;98.40;;;;;;5025844;28;20225;-80
2023/06/24 07:34:44;;;;;;;2.50;2.30;;;26.60;97.60;;;;;;5029437;28;20236;-80
2023/06/24 07:37:11;;;;;;;3.25;2.70;;;27.10;96.90;;;;;;5029224;28;20229;-80
2023/06/24 07:39:38;;;;;;;3.75;2.47;;;27.50;96.30;;;;;;5030333;28;20256;-80
2023/06/24 07:42:05;;;;;;;3.28;2.65;;;27.90;94.70;;;;;;5025168;28;20228;-80
2023/06/24 07:44:31;;;;;;;3.15;2.58;;;28.20;94.90;;;;;;5028750;28;20233;-80
2023/06/24 07:46:59;;;;;;;4.28;2.55;;;28.60;93.90;;;;;;5027187;28;20264;-79
2023/06/24 07:49:26;;;;;;;4.88;3.17;;;28.80;93.10;;;;;;5031539;28;20221;-80
2023/06/24 07:51:53;;;;;;;5.43;2.85;;;29.10;92.20;;;;;;5024037;28;20228;-80
2023/06/24 07:54:20;;;;;;;3.75;2.75;;;29.30;90.90;;;;;;5029046;28;20233;-80
2023/06/24 07:56:46;;;;;;;3.35;2.25;;;29.50;90.60;;;;;;5027884;28;20213;-80
2023/06/24 07:59:13;;;;;;;2.38;2.17;;;29.60;90.80;;;;;;5036434;28;20226;-80
2023/06/24 08:01:40;;;;;;;2.83;2.53;;;29.80;89.30;;;;;;5029146;28;20404;-80
2023/06/24 08:04:07;;;;;;;7.30;2.90;;;29.90;88.80;;;;;;5025197;28;20721;-80
2023/06/24 08:06:34;;;;;;;2.95;2.55;;;30.00;86.40;;;;;;5043757;28;20233;-80
2023/06/24 08:09:01;;;;;;;2.38;2.15;;;30.10;86.10;;;;;;5024370;28;20233;-80
2023/06/24 08:11:28;;;;;;;3.33;2.33;;;30.10;83.50;;;;;;5033300;28;20618;-80
2023/06/24 08:13:54;;;;;;;3.85;2.70;;;30.10;83.80;;;;;;5032571;28;20241;-80
2023/06/24 08:16:21;;;;;;;4.65;2.38;;;30.20;83.20;;;;;;5021485;28;20228;-80
2023/06/24 08:18:48;;;;;;;3.67;2.60;;;30.40;82.70;;;;;;5027183;28;20232;-80
2023/06/24 08:21:16;;;;;;;3.63;2.28;;;30.70;83.30;;;;;;5038725;28;20590;-80
2023/06/24 08:23:42;;;;;;;4.30;2.30;;;31.00;81.40;;;;;;5027570;28;20600;-80
2023/06/24 08:26:09;;;;;;;3.22;2.42;;;31.30;80.70;;;;;;5024725;28;20327;-80
2023/06/24 08:28:36;;;;;;;4.15;2.42;;;31.50;77.00;;;;;;5026822;28;20236;-79
2023/06/24 08:31:03;;;;;;;3.28;2.58;;;31.80;76.70;;;;;;5026761;28;20315;-80
2023/06/24 08:33:29;;;;;;;2.80;2.40;;;32.00;75.80;;;;;;5030223;28;20240;-80
2023/06/24 08:35:56;;;;;;;4.25;2.53;;;32.20;74.10;;;;;;5030375;28;20235;-80
2023/06/24 08:38:24;;;;;;;3.70;2.60;;;32.40;72.20;;;;;;5056644;28;20231;-80
2023/06/24 08:40:51;;;;;;;4.22;2.45;;;32.50;70.90;;;;;;5025430;28;20225;-80
2023/06/24 08:43:17;;;;;;;4.25;2.65;;;32.70;69.80;;;;;;5026147;28;20217;-80
2023/06/24 08:45:44;;;;;;;5.07;3.13;;;32.70;69.70;;;;;;5026150;28;20619;-80
2023/06/24 08:48:11;;;;;;;3.83;2.70;;;32.90;69.90;;;;;;5026490;28;20698;-80
2023/06/24 08:50:44;;;;;;;3.15;2.85;;;33.10;68.90;;;;;;5029229;28;20232;-80
2023/06/24 08:53:12;;;;;;;3.97;3.00;;;33.30;66.60;;;;;;5022515;28;20319;-80
2023/06/24 08:55:43;;;;;;;5.70;3.10;;;33.50;68.90;;;;;;5027781;28;20837;-80
2023/06/24 08:58:10;;;;;;;4.63;3.08;;;33.70;66.50;;;;;;5058556;28;20244;-80
2023/06/24 09:00:37;;;;;;;3.60;3.17;;;33.80;66.60;;;;;;5023915;28;20224;-80
2023/06/24 09:03:04;;;;;;;3.67;3.38;;;33.80;63.90;;;;;;5055425;28;20478;-80
2023/06/24 09:05:30;;;;;;;3.83;3.08;;;33.70;63.30;;;;;;5029014;28;20240;-80
2023/06/24 09:07:57;;;;;;;4.18;3.30;;;33.60;63.30;;;;;;5028225;28;20225;-79
2023/06/24 09:10:32;;;;;;;3.92;3.45;;;33.40;64.10;;;;;;5031958;28;20277;-80
2023/06/24 09:13:01;;;;;;;4.13;3.45;;;33.30;64.90;;;;;;5029256;28;20870;-80
2023/06/24 09:15:31;;;;;;;4.55;3.00;;;33.20;64.40;;;;;;5031597;28;20913;-80
2023/06/24 09:17:58;;;;;;;5.78;3.75;;;33.20;64.30;;;;;;5018273;28;20223;-80
2023/06/24 09:20:25;;;;;;;6.13;4.15;;;33.20;64.80;;;;;;5026140;28;20884;-80
2023/06/24 09:22:51;;;;;;;6.32;3.80;;;33.30;63.40;;;;;;5027899;28;20221;-80
2023/06/24 09:25:19;;;;;;;3.95;3.45;;;33.40;63.00;;;;;;5040430;28;20244;-80
2023/06/24 09:27:50;;;;;;;4.78;3.60;;;33.40;63.00;;;;;;5048406;28;20684;-80
2023/06/24 09:30:23;;;;;;;3.90;3.53;;;33.50;62.30;;;;;;5061077;28;20254;-80
2023/06/24 09:32:50;;;;;;;5.85;3.78;;;33.50;60.90;;;;;;5030279;28;20229;-81
2023/06/24 09:35:19;;;;;;;4.45;3.40;;;33.60;62.60;;;;;;5029287;28;20315;-81
2023/06/24 09:37:50;;;;;;;4.75;3.05;;;33.60;60.30;;;;;;5045014;28;20307;-81
2023/06/24 09:40:17;;;;;;;5.75;3.50;;;33.60;60.70;;;;;;5023996;28;20233;-80
2023/06/24 09:42:50;;;;;;;4.22;3.33;;;33.50;59.70;;;;;;5030570;28;20545;-80
2023/06/24 09:45:22;;;;;;;3.60;3.30;;;33.40;61.50;;;;;;5024142;28;20537;-80
2023/06/24 09:47:48;;;;;;;3.53;3.00;;;33.40;59.10;;;;;;5041125;28;20231;-80
2023/06/24 09:50:15;;;;;;;4.63;3.25;;;33.40;59.30;;;;;;5027196;28;22123;-80
2023/06/24 09:52:44;;;;;;;5.60;3.30;;;33.40;59.20;;;;;;5026354;28;20304;-81
2023/06/24 09:55:13;;;;;;;4.03;3.10;;;33.50;59.80;;;;;;5028807;28;20221;-81
2023/06/24 09:57:41;;;;;;;3.92;3.13;;;33.60;59.00;;;;;;5026459;28;20235;-81
2023/06/24 10:00:10;;;;;;;4.90;2.85;;;33.70;58.60;;;;;;5027243;28;20304;-80
2023/06/24 10:02:39;;;;;;;3.10;2.80;;;33.70;58.10;;;;;;5018295;28;20776;-81
2023/06/24 10:05:06;;;;;;;3.83;3.28;;;33.90;58.20;;;;;;5038365;28;20229;-80
2023/06/24 10:07:35;;;;;;;4.30;3.40;;;33.90;57.10;;;;;;5022657;28;20228;-80
2023/06/24 10:10:02;;;;;;;3.00;2.70;;;33.90;56.60;;;;;;5023657;28;20251;-80
2023/06/24 10:12:29;;;;;;;6.97;3.00;;;34.00;58.00;;;;;;5026320;28;20231;-86
2023/06/24 10:14:56;;;;;;;5.38;3.50;;;34.00;56.70;;;;;;5043039;28;20315;-82
2023/06/24 10:17:24;;;;;;;5.35;3.55;;;34.10;56.70;;;;;;5019257;28;20227;-82
2023/06/24 10:19:53;;;;;;;3.67;3.28;;;34.10;55.60;;;;;;5024863;28;20243;-85
2023/06/24 10:22:23;;;;;;;3.85;3.05;;;34.00;54.10;;;;;;5021602;28;20225;-83
2023/06/24 10:24:51;;;;;;;3.22;2.92;;;33.90;56.20;;;;;;5056054;28;20231;-85
2023/06/24 10:27:21;;;;;;;4.93;3.10;;;33.80;56.30;;;;;;5028477;28;20225;-82
2023/06/24 10:29:49;;;;;;;4.40;3.50;;;33.70;56.20;;;;;;5040454;28;20236;-84
2023/06/24 10:32:16;;;;;;;3.97;3.30;;;33.70;56.20;;;;;;5036066;28;20225;-84
2023/06/24 10:34:44;;;;;;;3.70;3.22;;;33.70;56.60;;;;;;5026343;28;20660;-85
2023/06/24 10:37:14;;;;;;;4.85;3.30;;;33.80;56.20;;;;;;5040439;28;20229;-83
2023/06/24 10:39:49;;;;;;;5.88;3.03;;;33.80;55.90;;;;;;5022385;28;20233;-84
2023/06/24 10:42:39;;;;;;;4.45;3.00;;;33.90;55.90;;;;;;5020583;28;20895;-85
2023/06/24 10:45:17;;;;;;;4.10;3.70;;;34.10;55.70;;;;;;5021843;28;20229;-85
2023/06/24 10:47:45;;;;;;;5.30;3.58;;;34.10;55.40;;;;;;5024773;28;20312;-84
2023/06/24 10:50:14;;;;;;;4.22;3.75;;;34.20;55.90;;;;;;5037094;28;20227;-83
2023/06/24 10:52:44;;;;;;;3.97;3.47;;;34.30;55.70;;;;;;5025731;28;20221;-84
2023/06/24 10:55:13;;;;;;;3.95;3.10;;;34.50;54.80;;;;;;5022952;28;20224;-83
2023/06/24 10:57:40;;;;;;;6.57;3.60;;;34.60;55.00;;;;;;5027812;28;20694;-86
2023/06/24 11:00:08;;;;;;;4.47;3.65;;;34.70;54.60;;;;;;5059707;28;20221;-86
2023/06/24 11:02:36;;;;;;;4.15;3.47;;;34.80;54.80;;;;;;5024568;28;20255;-87
2023/06/24 11:05:05;;;;;;;3.75;3.42;;;34.80;54.20;;;;;;5018990;28;20228;-84
2023/06/24 11:07:34;;;;;;;3.78;3.38;;;34.80;54.40;;;;;;5023940;28;20217;-84
2023/06/24 11:10:05;;;;;;;3.67;3.25;;;34.80;54.20;;;;;;5024188;28;20283;-88
2023/06/24 11:12:33;;;;;;;3.45;3.15;;;34.90;54.10;;;;;;5021018;28;20236;-84
2023/06/24 11:15:03;;;;;;;4.70;3.40;;;34.90;53.70;;;;;;5027911;28;21159;-84
2023/06/24 11:17:30;;;;;;;5.05;3.20;;;35.00;53.70;;;;;;5021550;28;20235;-89
2023/06/24 11:19:58;;;;;;;4.80;3.70;;;35.00;54.20;;;;;;5027126;28;20225;-86
2023/06/24 11:22:26;;;;;;;4.55;3.42;;;35.10;53.20;;;;;;5026684;28;20249;-84
2023/06/24 11:24:53;;;;;;;4.50;3.30;;;35.10;53.10;;;;;;5025084;28;20863;-85
2023/06/24 11:27:27;;;;;;;4.90;3.58;;;35.10;52.60;;;;;;5037410;28;20225;-86
2023/06/24 11:29:54;;;;;;;4.07;3.53;;;35.10;52.20;;;;;;5035867;28;20263;-83
2023/06/24 11:32:21;;;;;;;4.57;3.60;;;35.20;52.10;;;;;;5023490;28;20244;-87
2023/06/24 11:34:48;;;;;;;3.78;2.92;;;35.20;52.60;;;;;;5032513;28;20741;-90
2023/06/24 11:37:16;;;;;;;3.20;2.90;;;35.20;51.80;;;;;;5057183;28;20807;-84
2023/06/24 11:39:44;;;;;;;3.33;2.97;;;35.30;52.20;;;;;;5036025;28;20225;-83
2023/06/24 11:42:12;;;;;;;3.20;2.90;;;35.30;51.30;;;;;;5026809;28;20706;-88
2023/06/24 11:44:44;;;;;;;3.95;2.92;;;35.30;50.40;;;;;;5024039;28;20235;-85
2023/06/24 11:47:12;;;;;;;3.35;3.05;;;35.20;50.90;;;;;;5021538;28;20231;-83
2023/06/24 11:50:00;;;;;;;4.05;3.20;;;35.20;51.80;;;;;;5026173;28;20366;-83
2023/06/24 11:52:39;;;;;;;2.90;2.70;;;35.20;50.60;;;;;;5037982;28;20308;-83
2023/06/24 11:55:13;;;;;;;3.58;3.28;;;35.20;50.70;;;;;;5024139;28;20598;-86
2023/06/24 11:57:52;;;;;;;3.95;3.28;;;35.20;51.00;;;;;;5037837;28;20225;-83
2023/06/24 12:00:23;;;;;;;3.42;3.13;;;35.20;51.00;;;;;;5023620;28;20230;-84
2023/06/24 12:02:58;;;;;;;3.40;3.03;;;35.10;51.10;;;;;;5023314;28;20234;-88
2023/06/24 12:05:28;;;;;;;3.63;3.15;;;35.10;50.80;;;;;;5025990;28;20236;-84
2023/06/24 12:08:02;;;;;;;3.47;2.95;;;35.10;51.40;;;;;;5020631;28;21413;-86
2023/06/24 12:10:32;;;;;;;4.05;3.03;;;35.10;52.10;;;;;;5030693;28;20289;-81
2023/06/24 12:12:59;;;;;;;4.32;2.90;;;35.10;51.20;;;;;;5037979;28;20299;-81
2023/06/24 12:15:27;;;;;;;3.75;3.13;;;35.10;50.60;;;;;;5018987;28;20225;-81
2023/06/24 12:17:54;;;;;;;3.45;3.15;;;35.10;50.70;;;;;;5023135;28;20217;-81
2023/06/24 12:20:21;;;;;;;3.38;3.08;;;35.00;51.00;;;;;;5019842;28;20246;-82
2023/06/24 12:22:49;;;;;;;3.38;3.00;;;34.90;51.00;;;;;;5032042;28;20229;-81
2023/06/24 12:25:17;;;;;;;5.30;3.85;;;34.80;51.30;;;;;;5051185;28;20575;-81
2023/06/24 12:27:44;;;;;;;3.83;3.42;;;34.60;50.70;;;;;;5037304;28;20228;-81
2023/06/24 12:30:12;;;;;;;5.15;3.70;;;34.40;51.20;;;;;;5025532;28;20815;-81
2023/06/24 12:32:40;;;;;;;4.95;3.67;;;34.10;51.00;;;;;;5023547;28;20830;-81
2023/06/24 12:35:09;;;;;;;3.92;3.53;;;33.90;51.50;;;;;;5038108;28;20240;-81
2023/06/24 12:37:36;;;;;;;3.90;3.40;;;33.70;52.10;;;;;;5021566;28;20224;-81
2023/06/24 12:40:03;;;;;;;3.97;3.42;;;33.60;52.60;;;;;;5026055;28;20220;-81
2023/06/24 12:42:31;;;;;;;3.88;3.28;;;33.50;52.40;;;;;;5017923;28;20303;-81
2023/06/24 12:44:57;;;;;;;4.47;4.07;;;33.40;53.10;;;;;;5037303;28;20224;-81
2023/06/24 12:47:24;;;;;;;3.70;3.40;;;33.40;53.20;;;;;;5015613;28;20243;-81